sensor_id;sensor_type;location;lat;lon;timestamp;P1;P2;P0
69224;PMS1003;56333;51.306;17.056;2023-12-14T00:00:22;59.70;36.70;
69224;PMS1003;56333;51.306;17.056;2023-12-14T00:02:10;66.70;35.60;
69224;PMS1003;56333;51.306;17.056;2023-12-14T00:03:38;65.00;37.00;
69224;PMS1003;56333;51.306;17.056;2023-12-14T00:05:09;72.50;37.50;
69224;PMS1003;56333;51.306;17.056;2023-12-14T00:06:37;71.30;37.90;
69224;PMS1003;56333;51.306;17.056;2023-12-14T00:08:06;58.00;35.40;
69224;PMS1003;56333;51.306;17.056;2023-12-14T00:09:35;60.00;34.60;
69224;PMS1003;56333;51.306;17.056;2023-12-14T00:11:08;53.10;33.60;
69224;PMS1003;56333;51.306;17.056;2023-12-14T00:12:37;60.00;34.20;
69224;PMS1003;56333;51.306;17.056;2023-12-14T00:14:06;60.50;33.00;
69224;PMS1003;56333;51.306;17.056;2023-12-14T00:15:35;54.20;33.50;
69224;PMS1003;56333;51.306;17.056;2023-12-14T00:17:04;63.80;33.40;
69224;PMS1003;56333;51.306;17.056;2023-12-14T00:18:32;53.50;32.50;
69224;PMS1003;56333;51.306;17.056;2023-12-14T00:20:01;53.80;32.60;
69224;PMS1003;56333;51.306;17.056;2023-12-14T00:21:30;55.70;33.80;
69224;PMS1003;56333;51.306;17.056;2023-12-14T00:22:59;56.00;33.40;
69224;PMS1003;56333;51.306;17.056;2023-12-14T00:24:27;57.70;33.90;
69224;PMS1003;56333;51.306;17.056;2023-12-14T00:25:56;60.70;34.80;
69224;PMS1003;56333;51.306;17.056;2023-12-14T00:27:25;51.90;34.10;
69224;PMS1003;56333;51.306;17.056;2023-12-14T00:28:53;55.80;34.90;
69224;PMS1003;56333;51.306;17.056;2023-12-14T00:30:22;53.30;33.80;
69224;PMS1003;56333;51.306;17.056;2023-12-14T00:31:51;55.50;33.90;
69224;PMS1003;56333;51.306;17.056;2023-12-14T00:33:20;63.40;35.70;
69224;PMS1003;56333;51.306;17.056;2023-12-14T00:34:49;57.50;34.60;
69224;PMS1003;56333;51.306;17.056;2023-12-14T00:36:21;53.50;34.90;
69224;PMS1003;56333;51.306;17.056;2023-12-14T00:37:50;60.60;34.50;
69224;PMS1003;56333;51.306;17.056;2023-12-14T00:39:20;65.10;35.90;
69224;PMS1003;56333;51.306;17.056;2023-12-14T00:40:48;60.80;33.70;
69224;PMS1003;56333;51.306;17.056;2023-12-14T00:42:16;57.80;33.10;
69224;PMS1003;56333;51.306;17.056;2023-12-14T00:43:46;57.30;33.70;
69224;PMS1003;56333;51.306;17.056;2023-12-14T00:45:14;59.30;34.50;
69224;PMS1003;56333;51.306;17.056;2023-12-14T00:46:44;57.60;33.30;
69224;PMS1003;56333;51.306;17.056;2023-12-14T00:48:12;55.40;34.00;
69224;PMS1003;56333;51.306;17.056;2023-12-14T00:49:40;53.50;33.60;
69224;PMS1003;56333;51.306;17.056;2023-12-14T00:51:09;62.40;35.00;
69224;PMS1003;56333;51.306;17.056;2023-12-14T00:52:37;55.50;34.40;
69224;PMS1003;56333;51.306;17.056;2023-12-14T00:54:06;60.30;34.50;
69224;PMS1003;56333;51.306;17.056;2023-12-14T00:55:34;55.30;33.80;
69224;PMS1003;56333;51.306;17.056;2023-12-14T00:57:03;57.30;35.20;
69224;PMS1003;56333;51.306;17.056;2023-12-14T00:58:32;54.40;32.90;
69224;PMS1003;56333;51.306;17.056;2023-12-14T01:00:00;56.90;34.20;
69224;PMS1003;56333;51.306;17.056;2023-12-14T01:01:29;58.50;34.30;
69224;PMS1003;56333;51.306;17.056;2023-12-14T01:02:57;60.70;34.00;
69224;PMS1003;56333;51.306;17.056;2023-12-14T01:04:26;55.20;33.20;
69224;PMS1003;56333;51.306;17.056;2023-12-14T01:05:55;57.40;33.80;
69224;PMS1003;56333;51.306;17.056;2023-12-14T01:07:23;56.20;33.90;
69224;PMS1003;56333;51.306;17.056;2023-12-14T01:08:52;57.00;34.20;
69224;PMS1003;56333;51.306;17.056;2023-12-14T01:10:20;59.40;34.00;
69224;PMS1003;56333;51.306;17.056;2023-12-14T01:11:48;59.10;34.40;
69224;PMS1003;56333;51.306;17.056;2023-12-14T01:13:17;66.80;35.50;
69224;PMS1003;56333;51.306;17.056;2023-12-14T01:14:45;63.20;34.40;
69224;PMS1003;56333;51.306;17.056;2023-12-14T01:16:14;54.80;33.80;
69224;PMS1003;56333;51.306;17.056;2023-12-14T01:17:42;57.00;33.30;
69224;PMS1003;56333;51.306;17.056;2023-12-14T01:19:11;60.30;34.20;
69224;PMS1003;56333;51.306;17.056;2023-12-14T01:20:39;60.30;34.40;
69224;PMS1003;56333;51.306;17.056;2023-12-14T01:22:08;57.20;33.10;
69224;PMS1003;56333;51.306;17.056;2023-12-14T01:23:37;63.80;33.80;
69224;PMS1003;56333;51.306;17.056;2023-12-14T01:25:07;62.30;33.70;
69224;PMS1003;56333;51.306;17.056;2023-12-14T01:26:36;60.80;33.10;
69224;PMS1003;56333;51.306;17.056;2023-12-14T01:28:05;59.00;33.60;
69224;PMS1003;56333;51.306;17.056;2023-12-14T01:29:34;56.90;32.60;
69224;PMS1003;56333;51.306;17.056;2023-12-14T01:31:03;56.50;33.20;
69224;PMS1003;56333;51.306;17.056;2023-12-14T01:32:32;60.20;33.40;
69224;PMS1003;56333;51.306;17.056;2023-12-14T01:34:00;57.30;32.90;
69224;PMS1003;56333;51.306;17.056;2023-12-14T01:35:30;58.20;32.60;
69224;PMS1003;56333;51.306;17.056;2023-12-14T01:36:58;55.10;32.40;
69224;PMS1003;56333;51.306;17.056;2023-12-14T01:38:27;53.30;32.20;
69224;PMS1003;56333;51.306;17.056;2023-12-14T01:39:55;57.00;33.50;
69224;PMS1003;56333;51.306;17.056;2023-12-14T01:41:24;59.40;33.60;
69224;PMS1003;56333;51.306;17.056;2023-12-14T01:42:52;57.10;32.50;
69224;PMS1003;56333;51.306;17.056;2023-12-14T01:44:21;56.50;31.90;
69224;PMS1003;56333;51.306;17.056;2023-12-14T01:45:50;58.10;32.50;
69224;PMS1003;56333;51.306;17.056;2023-12-14T01:47:18;57.40;33.70;
69224;PMS1003;56333;51.306;17.056;2023-12-14T01:48:46;61.40;32.60;
69224;PMS1003;56333;51.306;17.056;2023-12-14T01:50:15;58.30;31.60;
69224;PMS1003;56333;51.306;17.056;2023-12-14T01:51:44;59.60;33.00;
69224;PMS1003;56333;51.306;17.056;2023-12-14T01:53:12;56.70;32.70;
69224;PMS1003;56333;51.306;17.056;2023-12-14T01:54:41;59.80;33.90;
69224;PMS1003;56333;51.306;17.056;2023-12-14T01:56:10;64.10;33.10;
69224;PMS1003;56333;51.306;17.056;2023-12-14T01:57:39;61.30;32.00;
69224;PMS1003;56333;51.306;17.056;2023-12-14T01:59:08;58.10;31.80;
69224;PMS1003;56333;51.306;17.056;2023-12-14T02:00:43;52.00;31.40;
69224;PMS1003;56333;51.306;17.056;2023-12-14T02:02:15;56.10;33.10;
69224;PMS1003;56333;51.306;17.056;2023-12-14T02:03:50;64.50;33.20;
69224;PMS1003;56333;51.306;17.056;2023-12-14T02:05:19;67.10;34.20;
69224;PMS1003;56333;51.306;17.056;2023-12-14T02:06:48;68.20;33.00;
69224;PMS1003;56333;51.306;17.056;2023-12-14T02:08:16;75.00;32.50;
69224;PMS1003;56333;51.306;17.056;2023-12-14T02:09:45;76.50;29.80;
69224;PMS1003;56333;51.306;17.056;2023-12-14T02:11:15;55.80;33.50;
69224;PMS1003;56333;51.306;17.056;2023-12-14T02:12:44;68.10;32.30;
69224;PMS1003;56333;51.306;17.056;2023-12-14T02:14:13;78.70;33.90;
69224;PMS1003;56333;51.306;17.056;2023-12-14T02:15:41;75.60;32.30;
69224;PMS1003;56333;51.306;17.056;2023-12-14T02:17:10;78.60;32.90;
69224;PMS1003;56333;51.306;17.056;2023-12-14T02:18:39;90.90;32.10;
69224;PMS1003;56333;51.306;17.056;2023-12-14T02:20:09;89.60;34.00;
69224;PMS1003;56333;51.306;17.056;2023-12-14T02:23:05;122.60;34.50;
69224;PMS1003;56333;51.306;17.056;2023-12-14T02:24:33;105.30;34.40;
69224;PMS1003;56333;51.306;17.056;2023-12-14T02:26:02;103.10;36.00;
69224;PMS1003;56333;51.306;17.056;2023-12-14T02:27:30;90.80;33.50;
69224;PMS1003;56333;51.306;17.056;2023-12-14T02:28:58;74.00;33.70;
69224;PMS1003;56333;51.306;17.056;2023-12-14T02:30:27;66.70;32.10;
69224;PMS1003;56333;51.306;17.056;2023-12-14T02:31:55;74.30;31.30;
69224;PMS1003;56333;51.306;17.056;2023-12-14T02:33:24;65.00;30.60;
69224;PMS1003;56333;51.306;17.056;2023-12-14T02:34:52;57.70;30.30;
69224;PMS1003;56333;51.306;17.056;2023-12-14T02:36:21;71.70;31.00;
69224;PMS1003;56333;51.306;17.056;2023-12-14T02:37:49;72.20;30.50;
69224;PMS1003;56333;51.306;17.056;2023-12-14T02:39:18;69.10;31.10;
69224;PMS1003;56333;51.306;17.056;2023-12-14T02:40:46;61.80;30.80;
69224;PMS1003;56333;51.306;17.056;2023-12-14T02:42:15;55.20;29.30;
69224;PMS1003;56333;51.306;17.056;2023-12-14T02:43:44;62.40;29.30;
69224;PMS1003;56333;51.306;17.056;2023-12-14T02:45:13;63.10;29.30;
69224;PMS1003;56333;51.306;17.056;2023-12-14T02:46:41;67.80;29.40;
69224;PMS1003;56333;51.306;17.056;2023-12-14T02:48:09;57.60;28.90;
69224;PMS1003;56333;51.306;17.056;2023-12-14T02:49:38;71.20;29.50;
69224;PMS1003;56333;51.306;17.056;2023-12-14T02:51:08;65.30;30.20;
69224;PMS1003;56333;51.306;17.056;2023-12-14T02:52:41;56.60;28.90;
69224;PMS1003;56333;51.306;17.056;2023-12-14T02:54:09;57.30;29.10;
69224;PMS1003;56333;51.306;17.056;2023-12-14T02:55:38;58.10;28.20;
69224;PMS1003;56333;51.306;17.056;2023-12-14T02:57:07;68.00;29.70;
69224;PMS1003;56333;51.306;17.056;2023-12-14T02:58:36;65.20;29.50;
69224;PMS1003;56333;51.306;17.056;2023-12-14T03:00:08;61.50;29.90;
69224;PMS1003;56333;51.306;17.056;2023-12-14T03:01:37;60.60;29.70;
69224;PMS1003;56333;51.306;17.056;2023-12-14T03:03:06;52.20;27.90;
69224;PMS1003;56333;51.306;17.056;2023-12-14T03:04:34;52.20;28.80;
69224;PMS1003;56333;51.306;17.056;2023-12-14T03:06:04;50.50;28.80;
69224;PMS1003;56333;51.306;17.056;2023-12-14T03:07:33;57.70;27.80;
69224;PMS1003;56333;51.306;17.056;2023-12-14T03:09:01;59.40;29.20;
69224;PMS1003;56333;51.306;17.056;2023-12-14T03:10:30;62.60;28.80;
69224;PMS1003;56333;51.306;17.056;2023-12-14T03:12:00;62.70;29.30;
69224;PMS1003;56333;51.306;17.056;2023-12-14T03:13:29;56.80;28.10;
69224;PMS1003;56333;51.306;17.056;2023-12-14T03:14:58;53.80;28.70;
69224;PMS1003;56333;51.306;17.056;2023-12-14T03:16:27;57.10;28.30;
69224;PMS1003;56333;51.306;17.056;2023-12-14T03:17:55;53.90;28.50;
69224;PMS1003;56333;51.306;17.056;2023-12-14T03:19:24;52.20;27.80;
69224;PMS1003;56333;51.306;17.056;2023-12-14T03:20:52;46.00;27.60;
69224;PMS1003;56333;51.306;17.056;2023-12-14T03:22:21;50.90;27.60;
69224;PMS1003;56333;51.306;17.056;2023-12-14T03:23:49;51.60;26.70;
69224;PMS1003;56333;51.306;17.056;2023-12-14T03:25:18;52.10;27.90;
69224;PMS1003;56333;51.306;17.056;2023-12-14T03:26:46;45.50;27.10;
69224;PMS1003;56333;51.306;17.056;2023-12-14T03:28:16;44.30;27.50;
69224;PMS1003;56333;51.306;17.056;2023-12-14T03:29:44;37.80;25.10;
69224;PMS1003;56333;51.306;17.056;2023-12-14T03:31:13;39.20;25.00;
69224;PMS1003;56333;51.306;17.056;2023-12-14T03:32:42;43.60;25.70;
69224;PMS1003;56333;51.306;17.056;2023-12-14T03:34:11;35.70;24.70;
69224;PMS1003;56333;51.306;17.056;2023-12-14T03:35:40;37.10;25.00;
69224;PMS1003;56333;51.306;17.056;2023-12-14T03:37:09;40.50;25.20;
69224;PMS1003;56333;51.306;17.056;2023-12-14T03:38:38;36.90;24.70;
69224;PMS1003;56333;51.306;17.056;2023-12-14T03:40:09;36.80;24.20;
69224;PMS1003;56333;51.306;17.056;2023-12-14T03:41:38;38.30;24.80;
69224;PMS1003;56333;51.306;17.056;2023-12-14T03:43:07;39.10;25.50;
69224;PMS1003;56333;51.306;17.056;2023-12-14T03:44:35;35.50;23.90;
69224;PMS1003;56333;51.306;17.056;2023-12-14T03:46:04;36.10;23.90;
69224;PMS1003;56333;51.306;17.056;2023-12-14T03:47:32;37.40;24.70;
69224;PMS1003;56333;51.306;17.056;2023-12-14T03:49:01;38.20;25.00;
69224;PMS1003;56333;51.306;17.056;2023-12-14T03:50:30;36.00;24.00;
69224;PMS1003;56333;51.306;17.056;2023-12-14T03:51:59;38.10;24.70;
69224;PMS1003;56333;51.306;17.056;2023-12-14T03:53:27;36.80;25.00;
69224;PMS1003;56333;51.306;17.056;2023-12-14T03:54:56;41.40;24.70;
69224;PMS1003;56333;51.306;17.056;2023-12-14T03:56:24;40.10;26.50;
69224;PMS1003;56333;51.306;17.056;2023-12-14T03:57:53;40.80;25.80;
69224;PMS1003;56333;51.306;17.056;2023-12-14T03:59:21;37.60;25.30;
69224;PMS1003;56333;51.306;17.056;2023-12-14T04:00:52;38.30;25.60;
69224;PMS1003;56333;51.306;17.056;2023-12-14T04:02:21;36.50;25.30;
69224;PMS1003;56333;51.306;17.056;2023-12-14T04:03:50;39.90;25.70;
69224;PMS1003;56333;51.306;17.056;2023-12-14T04:05:19;37.60;25.40;
69224;PMS1003;56333;51.306;17.056;2023-12-14T04:06:47;38.70;26.60;
69224;PMS1003;56333;51.306;17.056;2023-12-14T04:08:17;38.00;25.00;
69224;PMS1003;56333;51.306;17.056;2023-12-14T04:09:46;38.00;25.50;
69224;PMS1003;56333;51.306;17.056;2023-12-14T04:11:15;36.20;24.10;
69224;PMS1003;56333;51.306;17.056;2023-12-14T04:12:44;35.00;23.90;
69224;PMS1003;56333;51.306;17.056;2023-12-14T04:14:12;35.80;23.90;
69224;PMS1003;56333;51.306;17.056;2023-12-14T04:15:40;34.10;23.20;
69224;PMS1003;56333;51.306;17.056;2023-12-14T04:17:09;34.80;24.20;
69224;PMS1003;56333;51.306;17.056;2023-12-14T04:18:39;34.90;24.40;
69224;PMS1003;56333;51.306;17.056;2023-12-14T04:20:10;35.80;24.50;
69224;PMS1003;56333;51.306;17.056;2023-12-14T04:21:40;37.10;25.00;
69224;PMS1003;56333;51.306;17.056;2023-12-14T04:23:08;37.80;25.50;
69224;PMS1003;56333;51.306;17.056;2023-12-14T04:24:37;37.90;25.60;
69224;PMS1003;56333;51.306;17.056;2023-12-14T04:26:05;40.70;26.40;
69224;PMS1003;56333;51.306;17.056;2023-12-14T04:27:34;38.80;25.80;
69224;PMS1003;56333;51.306;17.056;2023-12-14T04:29:04;40.90;27.20;
69224;PMS1003;56333;51.306;17.056;2023-12-14T04:30:33;41.80;28.50;
69224;PMS1003;56333;51.306;17.056;2023-12-14T04:32:02;43.50;27.70;
69224;PMS1003;56333;51.306;17.056;2023-12-14T04:33:31;47.30;28.80;
69224;PMS1003;56333;51.306;17.056;2023-12-14T04:35:00;44.80;28.80;
69224;PMS1003;56333;51.306;17.056;2023-12-14T04:36:28;45.60;29.20;
69224;PMS1003;56333;51.306;17.056;2023-12-14T04:37:57;45.00;28.60;
69224;PMS1003;56333;51.306;17.056;2023-12-14T04:39:25;44.60;28.40;
69224;PMS1003;56333;51.306;17.056;2023-12-14T04:40:54;47.60;30.30;
69224;PMS1003;56333;51.306;17.056;2023-12-14T04:42:23;47.10;30.10;
69224;PMS1003;56333;51.306;17.056;2023-12-14T04:43:51;46.00;29.30;
69224;PMS1003;56333;51.306;17.056;2023-12-14T04:45:20;47.50;30.30;
69224;PMS1003;56333;51.306;17.056;2023-12-14T04:46:48;45.90;28.90;
69224;PMS1003;56333;51.306;17.056;2023-12-14T04:48:17;45.00;28.80;
69224;PMS1003;56333;51.306;17.056;2023-12-14T04:49:45;56.10;32.70;
69224;PMS1003;56333;51.306;17.056;2023-12-14T04:51:15;46.90;30.30;
69224;PMS1003;56333;51.306;17.056;2023-12-14T04:52:45;47.40;29.50;
69224;PMS1003;56333;51.306;17.056;2023-12-14T04:54:14;46.00;29.00;
69224;PMS1003;56333;51.306;17.056;2023-12-14T04:55:43;46.90;28.60;
69224;PMS1003;56333;51.306;17.056;2023-12-14T04:57:11;45.30;28.00;
69224;PMS1003;56333;51.306;17.056;2023-12-14T04:58:40;42.40;27.40;
69224;PMS1003;56333;51.306;17.056;2023-12-14T05:00:11;44.70;27.60;
69224;PMS1003;56333;51.306;17.056;2023-12-14T05:01:41;40.70;27.20;
69224;PMS1003;56333;51.306;17.056;2023-12-14T05:03:10;41.90;26.80;
69224;PMS1003;56333;51.306;17.056;2023-12-14T05:04:38;41.40;26.60;
69224;PMS1003;56333;51.306;17.056;2023-12-14T05:06:07;42.30;27.00;
69224;PMS1003;56333;51.306;17.056;2023-12-14T05:07:36;41.10;26.60;
69224;PMS1003;56333;51.306;17.056;2023-12-14T05:09:04;41.30;26.60;
69224;PMS1003;56333;51.306;17.056;2023-12-14T05:10:33;42.70;27.00;
69224;PMS1003;56333;51.306;17.056;2023-12-14T05:12:01;41.00;26.80;
69224;PMS1003;56333;51.306;17.056;2023-12-14T05:13:31;41.90;27.30;
69224;PMS1003;56333;51.306;17.056;2023-12-14T05:14:59;42.30;27.20;
69224;PMS1003;56333;51.306;17.056;2023-12-14T05:16:28;42.60;27.70;
69224;PMS1003;56333;51.306;17.056;2023-12-14T05:17:56;44.20;28.50;
69224;PMS1003;56333;51.306;17.056;2023-12-14T05:19:25;37.50;25.00;
69224;PMS1003;56333;51.306;17.056;2023-12-14T05:20:53;40.30;26.30;
69224;PMS1003;56333;51.306;17.056;2023-12-14T05:22:21;39.40;26.00;
69224;PMS1003;56333;51.306;17.056;2023-12-14T05:23:50;41.50;27.10;
69224;PMS1003;56333;51.306;17.056;2023-12-14T05:25:19;40.10;26.90;
69224;PMS1003;56333;51.306;17.056;2023-12-14T05:26:47;41.40;27.10;
69224;PMS1003;56333;51.306;17.056;2023-12-14T05:28:17;40.50;27.10;
69224;PMS1003;56333;51.306;17.056;2023-12-14T05:29:45;44.10;28.40;
69224;PMS1003;56333;51.306;17.056;2023-12-14T05:31:14;42.60;26.90;
69224;PMS1003;56333;51.306;17.056;2023-12-14T05:32:42;44.10;28.20;
69224;PMS1003;56333;51.306;17.056;2023-12-14T05:34:11;44.10;28.10;
69224;PMS1003;56333;51.306;17.056;2023-12-14T05:35:39;44.40;28.90;
69224;PMS1003;56333;51.306;17.056;2023-12-14T05:37:09;45.30;28.90;
69224;PMS1003;56333;51.306;17.056;2023-12-14T05:38:37;44.30;29.70;
69224;PMS1003;56333;51.306;17.056;2023-12-14T05:40:08;41.70;28.60;
69224;PMS1003;56333;51.306;17.056;2023-12-14T05:41:42;42.10;27.80;
69224;PMS1003;56333;51.306;17.056;2023-12-14T05:43:10;43.90;27.40;
69224;PMS1003;56333;51.306;17.056;2023-12-14T05:44:38;42.50;27.60;
69224;PMS1003;56333;51.306;17.056;2023-12-14T05:46:09;44.80;28.90;
69224;PMS1003;56333;51.306;17.056;2023-12-14T05:47:38;43.80;27.90;
69224;PMS1003;56333;51.306;17.056;2023-12-14T05:49:07;47.00;29.20;
69224;PMS1003;56333;51.306;17.056;2023-12-14T05:50:35;43.40;28.00;
69224;PMS1003;56333;51.306;17.056;2023-12-14T05:52:05;46.00;29.20;
69224;PMS1003;56333;51.306;17.056;2023-12-14T05:53:34;49.30;30.20;
69224;PMS1003;56333;51.306;17.056;2023-12-14T05:55:07;48.90;31.10;
69224;PMS1003;56333;51.306;17.056;2023-12-14T05:56:36;51.10;31.20;
69224;PMS1003;56333;51.306;17.056;2023-12-14T05:58:05;49.80;31.60;
69224;PMS1003;56333;51.306;17.056;2023-12-14T05:59:33;50.40;31.40;
69224;PMS1003;56333;51.306;17.056;2023-12-14T06:01:02;55.90;34.00;
69224;PMS1003;56333;51.306;17.056;2023-12-14T06:02:31;55.60;33.10;
69224;PMS1003;56333;51.306;17.056;2023-12-14T06:03:59;53.20;32.10;
69224;PMS1003;56333;51.306;17.056;2023-12-14T06:05:28;50.70;31.30;
69224;PMS1003;56333;51.306;17.056;2023-12-14T06:06:56;52.10;30.50;
69224;PMS1003;56333;51.306;17.056;2023-12-14T06:08:25;51.50;30.50;
69224;PMS1003;56333;51.306;17.056;2023-12-14T06:09:53;51.80;31.40;
69224;PMS1003;56333;51.306;17.056;2023-12-14T06:11:22;50.50;31.90;
69224;PMS1003;56333;51.306;17.056;2023-12-14T06:12:51;55.80;33.50;
69224;PMS1003;56333;51.306;17.056;2023-12-14T06:14:19;61.30;35.90;
69224;PMS1003;56333;51.306;17.056;2023-12-14T06:15:48;58.30;35.00;
69224;PMS1003;56333;51.306;17.056;2023-12-14T06:17:17;58.10;34.70;
69224;PMS1003;56333;51.306;17.056;2023-12-14T06:18:45;59.70;34.80;
69224;PMS1003;56333;51.306;17.056;2023-12-14T06:20:14;60.00;35.70;
69224;PMS1003;56333;51.306;17.056;2023-12-14T06:21:43;57.40;34.00;
69224;PMS1003;56333;51.306;17.056;2023-12-14T06:23:12;58.00;34.00;
69224;PMS1003;56333;51.306;17.056;2023-12-14T06:24:40;58.60;34.00;
69224;PMS1003;56333;51.306;17.056;2023-12-14T06:26:09;57.30;33.10;
69224;PMS1003;56333;51.306;17.056;2023-12-14T06:27:37;54.90;32.00;
69224;PMS1003;56333;51.306;17.056;2023-12-14T06:29:05;69.70;48.20;
69224;PMS1003;56333;51.306;17.056;2023-12-14T06:30:34;51.30;31.90;
69224;PMS1003;56333;51.306;17.056;2023-12-14T06:32:03;52.30;31.70;
69224;PMS1003;56333;51.306;17.056;2023-12-14T06:33:32;50.60;31.30;
69224;PMS1003;56333;51.306;17.056;2023-12-14T06:35:00;54.90;33.40;
69224;PMS1003;56333;51.306;17.056;2023-12-14T06:36:29;56.90;34.00;
69224;PMS1003;56333;51.306;17.056;2023-12-14T06:37:57;57.20;33.40;
69224;PMS1003;56333;51.306;17.056;2023-12-14T06:39:27;59.10;36.50;
69224;PMS1003;56333;51.306;17.056;2023-12-14T06:40:56;66.00;43.10;
69224;PMS1003;56333;51.306;17.056;2023-12-14T06:42:24;66.60;43.80;
69224;PMS1003;56333;51.306;17.056;2023-12-14T06:43:55;69.80;45.90;
69224;PMS1003;56333;51.306;17.056;2023-12-14T06:45:24;67.50;43.50;
69224;PMS1003;56333;51.306;17.056;2023-12-14T06:46:53;64.10;40.00;
69224;PMS1003;56333;51.306;17.056;2023-12-14T06:48:21;60.50;37.20;
69224;PMS1003;56333;51.306;17.056;2023-12-14T06:49:50;53.40;33.70;
69224;PMS1003;56333;51.306;17.056;2023-12-14T06:51:18;51.60;33.30;
69224;PMS1003;56333;51.306;17.056;2023-12-14T06:52:47;45.00;29.50;
69224;PMS1003;56333;51.306;17.056;2023-12-14T06:54:15;47.70;31.40;
69224;PMS1003;56333;51.306;17.056;2023-12-14T06:55:44;48.70;32.10;
69224;PMS1003;56333;51.306;17.056;2023-12-14T06:57:13;42.10;30.10;
69224;PMS1003;56333;51.306;17.056;2023-12-14T06:58:44;43.50;30.20;
69224;PMS1003;56333;51.306;17.056;2023-12-14T07:00:17;47.10;32.60;
69224;PMS1003;56333;51.306;17.056;2023-12-14T07:01:45;41.80;29.40;
69224;PMS1003;56333;51.306;17.056;2023-12-14T07:03:14;42.00;28.90;
69224;PMS1003;56333;51.306;17.056;2023-12-14T07:04:42;38.90;27.00;
69224;PMS1003;56333;51.306;17.056;2023-12-14T07:06:14;37.70;25.90;
69224;PMS1003;56333;51.306;17.056;2023-12-14T07:07:44;35.80;25.10;
69224;PMS1003;56333;51.306;17.056;2023-12-14T07:09:13;39.10;26.20;
69224;PMS1003;56333;51.306;17.056;2023-12-14T07:10:42;42.10;27.70;
69224;PMS1003;56333;51.306;17.056;2023-12-14T07:12:10;42.40;28.10;
69224;PMS1003;56333;51.306;17.056;2023-12-14T07:13:39;47.60;30.60;
69224;PMS1003;56333;51.306;17.056;2023-12-14T07:15:09;46.60;30.40;
69224;PMS1003;56333;51.306;17.056;2023-12-14T07:16:38;47.40;20.50;
69224;PMS1003;56333;51.306;17.056;2023-12-14T07:18:07;44.40;29.40;
69224;PMS1003;56333;51.306;17.056;2023-12-14T07:19:35;43.90;29.00;
69224;PMS1003;56333;51.306;17.056;2023-12-14T07:21:04;40.70;27.00;
69224;PMS1003;56333;51.306;17.056;2023-12-14T07:22:33;38.50;26.10;
69224;PMS1003;56333;51.306;17.056;2023-12-14T07:24:02;35.90;24.70;
69224;PMS1003;56333;51.306;17.056;2023-12-14T07:25:31;39.30;26.00;
69224;PMS1003;56333;51.306;17.056;2023-12-14T07:26:59;36.50;25.60;
69224;PMS1003;56333;51.306;17.056;2023-12-14T07:28:28;41.90;28.20;
69224;PMS1003;56333;51.306;17.056;2023-12-14T07:29:56;46.30;29.80;
69224;PMS1003;56333;51.306;17.056;2023-12-14T07:31:25;47.30;30.50;
69224;PMS1003;56333;51.306;17.056;2023-12-14T07:32:54;46.40;29.00;
69224;PMS1003;56333;51.306;17.056;2023-12-14T07:34:23;44.40;29.00;
69224;PMS1003;56333;51.306;17.056;2023-12-14T07:35:53;41.40;27.90;
69224;PMS1003;56333;51.306;17.056;2023-12-14T07:37:22;45.20;29.00;
69224;PMS1003;56333;51.306;17.056;2023-12-14T07:38:51;41.30;27.50;
69224;PMS1003;56333;51.306;17.056;2023-12-14T07:40:20;38.80;25.90;
69224;PMS1003;56333;51.306;17.056;2023-12-14T07:41:48;40.90;26.20;
69224;PMS1003;56333;51.306;17.056;2023-12-14T07:43:17;37.40;25.30;
69224;PMS1003;56333;51.306;17.056;2023-12-14T07:44:45;36.30;26.00;
69224;PMS1003;56333;51.306;17.056;2023-12-14T07:46:14;37.00;25.80;
69224;PMS1003;56333;51.306;17.056;2023-12-14T07:47:42;38.50;26.10;
69224;PMS1003;56333;51.306;17.056;2023-12-14T07:49:12;38.50;27.20;
69224;PMS1003;56333;51.306;17.056;2023-12-14T07:50:40;37.10;26.50;
69224;PMS1003;56333;51.306;17.056;2023-12-14T07:52:09;34.90;25.50;
69224;PMS1003;56333;51.306;17.056;2023-12-14T07:53:39;33.80;24.80;
69224;PMS1003;56333;51.306;17.056;2023-12-14T07:55:09;35.70;25.60;
69224;PMS1003;56333;51.306;17.056;2023-12-14T07:56:39;37.20;26.40;
69224;PMS1003;56333;51.306;17.056;2023-12-14T07:58:08;36.60;25.50;
69224;PMS1003;56333;51.306;17.056;2023-12-14T07:59:37;36.70;26.30;
69224;PMS1003;56333;51.306;17.056;2023-12-14T08:01:06;35.90;26.40;
69224;PMS1003;56333;51.306;17.056;2023-12-14T08:02:35;37.80;25.40;
69224;PMS1003;56333;51.306;17.056;2023-12-14T08:04:05;33.90;24.30;
69224;PMS1003;56333;51.306;17.056;2023-12-14T08:05:33;33.90;24.10;
69224;PMS1003;56333;51.306;17.056;2023-12-14T08:07:01;34.60;25.20;
69224;PMS1003;56333;51.306;17.056;2023-12-14T08:08:30;34.60;25.50;
69224;PMS1003;56333;51.306;17.056;2023-12-14T08:09:59;34.70;25.10;
69224;PMS1003;56333;51.306;17.056;2023-12-14T08:11:28;37.30;25.90;
69224;PMS1003;56333;51.306;17.056;2023-12-14T08:12:56;36.20;26.10;
69224;PMS1003;56333;51.306;17.056;2023-12-14T08:14:25;37.50;25.70;
69224;PMS1003;56333;51.306;17.056;2023-12-14T08:15:54;35.30;25.80;
69224;PMS1003;56333;51.306;17.056;2023-12-14T08:17:22;38.00;26.30;
69224;PMS1003;56333;51.306;17.056;2023-12-14T08:18:50;36.80;24.80;
69224;PMS1003;56333;51.306;17.056;2023-12-14T08:20:19;32.90;23.70;
69224;PMS1003;56333;51.306;17.056;2023-12-14T08:21:47;32.80;24.00;
69224;PMS1003;56333;51.306;17.056;2023-12-14T08:23:16;33.70;24.30;
69224;PMS1003;56333;51.306;17.056;2023-12-14T08:24:44;33.90;23.90;
69224;PMS1003;56333;51.306;17.056;2023-12-14T08:26:12;43.20;34.30;
69224;PMS1003;56333;51.306;17.056;2023-12-14T08:27:41;33.40;24.40;
69224;PMS1003;56333;51.306;17.056;2023-12-14T08:29:10;34.10;23.60;
69224;PMS1003;56333;51.306;17.056;2023-12-14T08:30:38;35.90;25.80;
69224;PMS1003;56333;51.306;17.056;2023-12-14T08:32:08;39.50;28.20;
69224;PMS1003;56333;51.306;17.056;2023-12-14T08:33:38;38.40;27.70;
69224;PMS1003;56333;51.306;17.056;2023-12-14T08:35:11;40.20;26.90;
69224;PMS1003;56333;51.306;17.056;2023-12-14T08:36:39;34.50;23.50;
69224;PMS1003;56333;51.306;17.056;2023-12-14T08:38:08;34.00;23.80;
69224;PMS1003;56333;51.306;17.056;2023-12-14T08:39:37;37.70;25.50;
69224;PMS1003;56333;51.306;17.056;2023-12-14T08:41:06;34.80;24.60;
69224;PMS1003;56333;51.306;17.056;2023-12-14T08:42:34;35.60;24.20;
69224;PMS1003;56333;51.306;17.056;2023-12-14T08:44:03;34.60;24.60;
69224;PMS1003;56333;51.306;17.056;2023-12-14T08:45:32;35.70;24.80;
69224;PMS1003;56333;51.306;17.056;2023-12-14T08:47:01;36.70;25.20;
69224;PMS1003;56333;51.306;17.056;2023-12-14T08:48:30;36.70;26.20;
69224;PMS1003;56333;51.306;17.056;2023-12-14T08:49:59;32.00;22.50;